METAR Data
IDs: Format: Raw Decoded Include TAF

Data at: 2223 UTC 22 Sep 2020

KY51 222215Z AUTO 21005KT 10SM CLR 24/17 A3007 RMK AO1 T02420166
KY51 222155Z AUTO 18004KT 10SM CLR 25/16 A3007 RMK AO1 T02450163
KY51 222135Z AUTO 22005KT 10SM CLR 25/16 A3007 RMK AO1 T02480164
KY51 222115Z AUTO 21006KT 10SM CLR 25/16 A3008 RMK AO1 T02500162
KY51 222055Z AUTO 23005KT 10SM CLR 25/16 A3009 RMK AO1 T02500164
KY51 222035Z AUTO 22009KT 10SM CLR 25/16 A3009 RMK AO1 T02500163
KY51 222015Z AUTO 22004KT 10SM CLR 25/17 A3009 RMK AO1 T02520168
KY51 221955Z AUTO 24006KT 10SM CLR 25/17 A3010 RMK AO1 T02520170
KY51 221935Z AUTO 21005KT 10SM CLR 25/17 A3010 RMK AO1 T02500167
KY51 221915Z AUTO 23004KT 10SM CLR 25/17 A3010 RMK AO1 T02500170
KY51 221855Z AUTO 20004KT 10SM CLR 25/17 A3011 RMK AO1 T02460171
KY51 221835Z AUTO 22004KT 10SM CLR 24/17 A3012 RMK AO1 T02420167
KY51 221815Z AUTO 27004KT 10SM CLR 24/17 A3013 RMK AO1 T02420167
KY51 221755Z AUTO 23004KT 10SM CLR 24/17 A3014 RMK AO1 T02350165 10235 20129
KY51 221735Z AUTO 21005KT 10SM CLR 23/16 A3014 RMK AO1 T02310163
KY51 221715Z AUTO 19004KT 10SM CLR 23/16 A3015 RMK AO1 T02330164
KY51 221655Z AUTO 24003KT 10SM CLR 23/16 A3016 RMK AO1 T02260159
KY51 221635Z AUTO 23003KT 10SM CLR 22/15 A3016 RMK AO1 T02150154
KY51 221615Z AUTO 25003KT 10SM CLR 22/15 A3017 RMK AO1 T02160154
KY51 221555Z AUTO 23005KT 10SM CLR 21/15 A3017 RMK AO1 T02110153
KY51 221535Z AUTO 24004KT 10SM CLR 20/15 A3017 RMK AO1 T02000148
KY51 221515Z AUTO 00000KT 10SM CLR 19/15 A3018 RMK AO1 T01860145
KY51 221455Z AUTO 23006KT 10SM CLR 19/14 A3018 RMK AO1 T01850141
KY51 221435Z AUTO 23005KT 10SM CLR 18/14 A3018 RMK AO1 T01840141
KY51 221415Z AUTO 23004KT 10SM CLR 17/14 A3018 RMK AO1 T01740136
KY51 221355Z AUTO 23005KT 10SM CLR 17/13 A3018 RMK AO1 T01670134
KY51 221335Z AUTO 22004KT 10SM CLR 16/13 A3018 RMK AO1 T01580132
KY51 221315Z AUTO 21004KT 10SM CLR 15/13 A3018 RMK AO1 T01460128
KY51 221255Z AUTO 21003KT 10SM CLR 14/12 A3018 RMK AO1 T01380123
KY51 221235Z AUTO 20004KT 10SM CLR 14/12 A3018 RMK AO1 T01350121
KY51 221215Z AUTO 19004KT 10SM CLR 13/12 A3018 RMK AO1 T01300120
KY51 221155Z AUTO 20003KT 10SM CLR 13/12 A3018 RMK AO1 T01320120 10151 20132
KY51 221135Z AUTO 20005KT 10SM CLR 14/12 A3018 RMK AO1 T01380120
KY51 221115Z AUTO 20004KT 10SM CLR 14/12 A3018 RMK AO1 T01380120
KY51 221055Z AUTO 19004KT 10SM CLR 14/12 A3018 RMK AO1 T01400120
KY51 221035Z AUTO 19003KT 10SM CLR 14/12 A3017 RMK AO1 T01430121
KY51 221015Z AUTO 19004KT 10SM CLR 15/12 A3017 RMK AO1 T01460122
KY51 220955Z AUTO 19004KT 10SM SCT120 15/12 A3017 RMK AO1 T01490121
KY51 220935Z AUTO 18004KT 10SM SCT120 15/12 A3017 RMK AO1 T01470120
KY51 220915Z AUTO 17004KT 10SM BKN120 15/12 A3018 RMK AO1 T01450120
KY51 220855Z AUTO 17004KT 10SM SCT065 SCT080 BKN120 15/12 A3018 RMK AO1 T01450120
KY51 220835Z AUTO 00000KT 10SM BKN120 15/12 A3018 RMK AO1 T01470116
KY51 220815Z AUTO 19004KT 10SM CLR 15/12 A3019 RMK AO1 T01450115
KY51 220755Z AUTO 19004KT 10SM CLR 14/12 A3019 RMK AO1 T01440116
KY51 220735Z AUTO 20003KT 10SM CLR 15/12 A3019 RMK AO1 T01460115
KY51 220715Z AUTO 19003KT 10SM SCT110 15/12 A3019 RMK AO1 T01500115
KY51 220655Z AUTO 19003KT 10SM SCT110 15/11 A3020 RMK AO1 T01500114
KY51 220635Z AUTO 20003KT 10SM CLR 15/11 A3020 RMK AO1 T01500113
KY51 220615Z AUTO 19003KT 10SM CLR 15/11 A3020 RMK AO1 T01480110
KY51 220555Z AUTO 19003KT 10SM CLR 15/11 A3020 RMK AO1 T01480109 10185 20146 402240102
KY51 220535Z AUTO 00000KT 10SM CLR 15/11 A3020 RMK AO1 T01520108
KY51 220515Z AUTO 20003KT 10SM CLR 16/11 A3019 RMK AO1 T01560107
KY51 220455Z AUTO 19005KT 10SM CLR 16/11 A3019 RMK AO1 T01550107
KY51 220435Z AUTO 20006KT 10SM CLR 15/11 A3019 RMK AO1 T01520107
KY51 220415Z AUTO 19006KT 10SM CLR 16/11 A3019 RMK AO1 T01620107
KY51 220355Z AUTO 19005KT 10SM CLR 17/11 A3019 RMK AO1 T01680107
KY51 220335Z AUTO 19005KT 10SM SCT120 17/11 A3018 RMK AO1 T01700108
KY51 220315Z AUTO 19006KT 10SM BKN120 18/11 A3018 RMK AO1 T01750108
KY51 220255Z AUTO 18005KT 10SM BKN120 17/11 A3018 RMK AO1 T01720110
KY51 220235Z AUTO 18006KT 10SM BKN120 18/11 A3018 RMK AO1 T01750110
KY51 220215Z AUTO 18006KT 10SM BKN120 18/11 A3017 RMK AO1 T01750110
KY51 220155Z AUTO 20005KT 10SM SCT110 18/11 A3018 RMK AO1 T01750111
KY51 220135Z AUTO 18006KT 10SM CLR 18/11 A3017 RMK AO1 T01760110
KY51 220115Z AUTO 17006KT 10SM CLR 18/11 A3017 RMK AO1 T01800110
KY51 220055Z AUTO 18007KT 10SM CLR 18/11 A3016 RMK AO1 T01840112
KY51 220035Z AUTO 16009G14KT 10SM CLR 19/12 A3015 RMK AO1 T01850115
KY51 220015Z AUTO 16008KT 10SM CLR 18/12 A3016 RMK AO1 T01810117
KY51 212355Z AUTO 17007KT 10SM CLR 19/12 A3016 RMK AO1 T01850121 10224 20185
KY51 212335Z AUTO 17008KT 10SM CLR 19/12 A3017 RMK AO1 T01880124
KY51 212315Z AUTO 17008G15KT 10SM CLR 20/13 A3017 RMK AO1 T01950126
KY51 212255Z AUTO 16010KT 10SM CLR 20/13 A3017 RMK AO1 T02000126
KY51 212235Z AUTO 17008KT 10SM CLR 21/13 A3018 RMK AO1 T02050128
KY51 212215Z AUTO 17010G18KT 10SM CLR 21/13 A3017 RMK AO1 T02080132
KY51 212155Z AUTO 17011G15KT 10SM CLR 22/14 A3017 RMK AO1 T02160135
KY51 212135Z AUTO 19011G15KT 10SM CLR 22/14 A3018 RMK AO1 T02170137
KY51 212115Z AUTO 18010G15KT 150V210 10SM CLR 22/14 A3019 RMK AO1 T02200139
KY51 212055Z AUTO 17008G14KT 10SM CLR 22/14 A3020 RMK AO1 T02220142
KY51 212035Z AUTO 16008KT 10SM CLR 22/14 A3021 RMK AO1 T02170135
KY51 212015Z AUTO 15009KT 10SM CLR 21/13 A3021 RMK AO1 T02140134
KY51 211955Z AUTO 17007KT 10SM CLR 21/13 A3021 RMK AO1 T02050132
KY51 211935Z AUTO 18006KT 10SM CLR 21/13 A3022 RMK AO1 T02090130
KY51 211915Z AUTO 17006KT 10SM CLR 20/13 A3023 RMK AO1 T02020127
KY51 211855Z AUTO 17007KT 10SM CLR 21/13 A3024 RMK AO1 T02090128
KY51 211835Z AUTO 16008KT 110V190 10SM CLR 21/13 A3024 RMK AO1 T02080126
KY51 211815Z AUTO 17008KT 10SM CLR 20/12 A3025 RMK AO1 T02030122
KY51 211755Z AUTO 18009KT 10SM CLR 20/12 A3026 RMK AO1 T02040123 10209 20110
KY51 211735Z AUTO 18008KT 10SM CLR 21/12 A3027 RMK AO1 T02080120
KY51 211715Z AUTO 20008KT 10SM CLR 20/11 A3027 RMK AO1 T02030114
KY51 211655Z AUTO 18007KT 10SM CLR 20/11 A3028 RMK AO1 T01950109
KY51 211635Z AUTO 17007KT 10SM CLR 19/10 A3028 RMK AO1 T01860103
KY51 211615Z AUTO 20008KT 10SM CLR 18/10 A3029 RMK AO1 T01800095
KY51 211555Z AUTO 20009KT 10SM CLR 18/09 A3030 RMK AO1 T01750092
KY51 211535Z AUTO 20008KT 10SM CLR 16/09 A3030 RMK AO1 T01640086
KY51 211515Z AUTO 18007KT 10SM CLR 16/08 A3029 RMK AO1 T01550081
KY51 211455Z AUTO 18008KT 10SM CLR 15/08 A3030 RMK AO1 T01460076
KY51 211435Z AUTO 18006KT 10SM CLR 14/07 A3030 RMK AO1 T01400072
KY51 211415Z AUTO 17007KT 10SM CLR 13/07 A3030 RMK AO1 T01310070
KY51 211355Z AUTO 17007KT 10SM CLR 13/07 A3030 RMK AO1 T01270069
KY51 211335Z AUTO 16006KT 10SM CLR 12/07 A3030 RMK AO1 T01210069
KY51 211315Z AUTO 17007KT 10SM CLR 11/06 A3031 RMK AO1 T01120063
KY51 211255Z AUTO 17007KT 10SM CLR 11/06 A3031 RMK AO1 T01120062
KY51 211235Z AUTO 18005KT 10SM CLR 11/06 A3030 RMK AO1 T01130061
KY51 211215Z AUTO 17006KT 10SM CLR 11/06 A3030 RMK AO1 T01110060
KY51 211155Z AUTO 17007KT 10SM CLR 11/06 A3029 RMK AO1 T01110060 10132 20102
KY51 211135Z AUTO 17008KT 10SM CLR 11/06 A3028 RMK AO1 T01070061
KY51 211115Z AUTO 16009KT 10SM CLR 10/06 A3028 RMK AO1 T01020063
KY51 211055Z AUTO 17005KT 10SM CLR 11/06 A3029 RMK AO1 T01050063
KY51 211035Z AUTO 19005KT 10SM CLR 11/06 A3029 RMK AO1 T01100062